createdAt,value
2022-11-24T07:46:42.740Z,19.06
2022-11-24T07:47:42.738Z,19.20
2022-11-24T07:48:42.723Z,19.17
2022-11-24T07:49:42.709Z,19.10
2022-11-24T07:50:42.704Z,19.12
2022-11-24T07:51:42.691Z,19.13
2022-11-24T07:52:42.688Z,19.07
2022-11-24T07:53:42.670Z,19.09
2022-11-24T07:54:42.663Z,18.96
2022-11-24T07:55:42.652Z,19.01
2022-11-24T07:56:42.640Z,18.97
2022-11-24T07:57:42.729Z,19.06
2022-11-24T07:58:42.616Z,19.02
2022-11-24T07:59:42.604Z,19.05
2022-11-24T08:00:42.599Z,19.12
2022-11-24T08:01:42.631Z,18.94
2022-11-24T08:02:42.580Z,19.05
2022-11-24T08:03:42.773Z,19.01
2022-11-24T08:04:42.561Z,19.09
2022-11-24T08:06:07.805Z,19.10
2022-11-24T08:06:47.169Z,19.10
2022-11-24T08:07:42.585Z,18.96
2022-11-24T08:08:42.528Z,18.91
2022-11-24T08:09:42.620Z,18.91
2022-11-24T08:10:42.498Z,18.87
2022-11-24T08:11:42.486Z,18.91
2022-11-24T08:12:43.849Z,18.99
2022-11-24T08:13:42.481Z,18.91
2022-11-24T08:14:42.458Z,18.90
2022-11-24T08:15:42.448Z,18.89
2022-11-24T08:16:42.531Z,18.89
2022-11-24T08:17:42.436Z,18.84
2022-11-24T08:18:42.416Z,18.79
2022-11-24T08:19:42.406Z,18.76
2022-11-24T08:20:42.394Z,18.82
2022-11-24T08:21:42.384Z,18.76
2022-11-24T08:22:42.380Z,18.69
2022-11-24T08:23:42.376Z,18.66
2022-11-24T08:24:42.355Z,18.68
2022-11-24T08:25:42.350Z,18.69
2022-11-24T08:26:42.341Z,18.69
2022-11-24T08:27:42.325Z,18.66
2022-11-24T08:28:42.321Z,18.66
2022-11-24T08:29:42.408Z,18.69
2022-11-24T08:30:42.301Z,18.72
2022-11-24T08:31:42.335Z,18.84
2022-11-24T08:32:42.273Z,18.83
2022-11-24T08:33:42.262Z,18.82
2022-11-24T08:34:42.254Z,18.75
2022-11-24T08:35:42.255Z,18.82
2022-11-24T08:36:42.238Z,18.75
2022-11-24T08:37:42.224Z,18.78
2022-11-24T08:38:42.216Z,18.75
2022-11-24T08:39:42.307Z,18.66
2022-11-24T08:40:42.198Z,18.78
2022-11-24T08:41:42.180Z,18.84
2022-11-24T08:42:42.181Z,18.75
2022-11-24T08:43:42.165Z,18.75
2022-11-24T08:44:42.156Z,18.91
2022-11-24T08:45:42.341Z,18.84
2022-11-24T08:46:42.169Z,18.87
2022-11-24T08:47:42.128Z,18.83
2022-11-24T08:48:42.112Z,18.89
2022-11-24T08:49:42.203Z,18.86
2022-11-24T08:50:42.098Z,18.78
2022-11-24T08:51:42.087Z,18.86
2022-11-24T08:52:42.075Z,18.91
2022-11-24T08:53:42.064Z,18.84
2022-11-24T08:54:42.056Z,18.74
2022-11-24T08:55:42.039Z,18.83
2022-11-24T08:56:42.031Z,18.83
2022-11-24T08:57:42.024Z,18.82
2022-11-24T08:58:42.086Z,18.79
2022-11-24T08:59:42.000Z,18.82
2022-11-24T09:00:41.990Z,18.82
2022-11-24T09:01:42.033Z,18.84
2022-11-24T09:02:41.967Z,18.76
2022-11-24T09:03:46.578Z,18.79
2022-11-24T09:04:42.059Z,18.84
2022-11-24T09:05:51.781Z,18.89
2022-11-24T09:06:41.935Z,18.93
2022-11-24T09:07:41.940Z,18.93
2022-11-24T09:08:41.908Z,18.93
2022-11-24T09:09:41.914Z,19.01
2022-11-24T09:10:41.891Z,18.97
2022-11-24T09:11:41.884Z,18.96
2022-11-24T09:12:41.870Z,19.02
2022-11-24T09:13:41.863Z,18.97
2022-11-24T09:14:41.952Z,18.99
2022-11-24T09:15:41.833Z,19.01
2022-11-24T09:16:41.871Z,18.97
2022-11-24T09:17:41.816Z,18.97
2022-11-24T09:18:41.817Z,18.97
2022-11-24T09:19:41.797Z,18.99
2022-11-24T09:20:41.791Z,19.07
2022-11-24T09:21:41.773Z,19.02
2022-11-24T09:22:41.771Z,18.97
2022-11-24T09:23:41.754Z,18.97
2022-11-24T09:24:41.850Z,18.97
2022-11-24T09:25:41.738Z,18.94
2022-11-24T09:26:46.060Z,18.99
2022-11-24T09:27:41.718Z,18.96
2022-11-24T09:28:41.710Z,19.01
2022-11-24T09:29:41.701Z,18.96
2022-11-24T09:30:41.757Z,18.97
2022-11-24T09:31:41.676Z,18.97
2022-11-24T09:32:41.671Z,18.96
2022-11-24T09:33:41.663Z,19.07
2022-11-24T09:34:41.652Z,19.10
2022-11-24T09:35:41.635Z,19.23
2022-11-24T09:36:41.731Z,19.30
2022-11-24T09:37:41.617Z,19.25
2022-11-24T09:38:41.607Z,19.34
2022-11-24T09:39:41.598Z,19.38
2022-11-24T09:40:41.595Z,19.45
2022-11-24T09:41:41.579Z,19.42
2022-11-24T09:42:41.671Z,19.53
2022-11-24T09:43:41.561Z,19.43
2022-11-24T09:44:41.567Z,19.42
2022-11-24T09:46:04.478Z,19.40
2022-11-24T09:46:41.571Z,19.42
2022-11-24T09:47:41.517Z,19.42
2022-11-24T09:48:41.618Z,19.39
2022-11-24T09:49:41.499Z,19.43
2022-11-24T09:50:41.489Z,19.45
2022-11-24T09:51:41.480Z,19.47
2022-11-24T09:52:41.469Z,19.43
2022-11-24T09:53:41.566Z,19.52
2022-11-24T09:54:41.451Z,19.57
2022-11-24T09:55:41.441Z,19.50
2022-11-24T09:56:41.440Z,19.52
2022-11-24T09:57:41.425Z,19.62
2022-11-24T09:58:41.414Z,19.61
2022-11-24T09:59:41.399Z,19.62
2022-11-24T10:00:41.392Z,19.61
2022-11-24T10:01:41.435Z,19.67
2022-11-24T10:02:41.378Z,19.67
2022-11-24T10:03:41.365Z,19.71
2022-11-24T10:04:41.414Z,19.70
2022-11-24T10:05:41.349Z,19.75
2022-11-24T10:06:41.341Z,19.75
2022-11-24T10:07:41.526Z,19.68
2022-11-24T10:08:41.417Z,19.75
2022-11-24T10:09:41.309Z,19.72
2022-11-24T10:10:41.303Z,19.70
2022-11-24T10:11:41.288Z,19.85
2022-11-24T10:12:41.280Z,19.80
2022-11-24T10:13:41.270Z,19.72
2022-11-24T10:14:41.263Z,19.80
2022-11-24T10:15:41.387Z,19.83
2022-11-24T10:16:41.248Z,19.85
2022-11-24T10:17:41.231Z,19.86
2022-11-24T10:18:41.323Z,19.87
2022-11-24T10:19:41.367Z,19.89
2022-11-24T10:20:41.202Z,20.10
2022-11-24T10:21:41.196Z,19.98
2022-11-24T10:22:41.190Z,20.05
2022-11-24T10:23:41.182Z,20.10
2022-11-24T10:24:41.175Z,20.12
2022-11-24T10:25:41.164Z,20.07
2022-11-24T10:26:41.157Z,20.10
2022-11-24T10:27:41.146Z,20.25
2022-11-24T10:28:41.252Z,20.16
2022-11-24T10:29:41.121Z,20.22
2022-11-24T10:30:41.149Z,20.25
2022-11-24T10:31:41.110Z,20.35
2022-11-24T10:32:41.094Z,20.40
2022-11-24T10:33:41.092Z,20.35
2022-11-24T10:34:41.081Z,20.53
2022-11-24T10:35:41.072Z,20.37
2022-11-24T10:36:41.058Z,20.41
2022-11-24T10:37:41.048Z,20.38
2022-11-24T10:38:41.150Z,20.41
2022-11-24T10:39:41.029Z,20.53
2022-11-24T10:40:56.395Z,20.51
2022-11-24T10:41:41.013Z,20.44
2022-11-24T10:42:41.010Z,20.54
2022-11-24T10:43:41.000Z,20.57
2022-11-24T10:44:40.989Z,20.63
2022-11-24T10:45:40.984Z,20.72
2022-11-24T10:46:40.993Z,20.71
2022-11-24T10:47:40.959Z,20.78
2022-11-24T10:48:40.949Z,20.85
2022-11-24T10:49:40.944Z,20.87
2022-11-24T10:50:40.928Z,21.00
2022-11-24T10:51:40.942Z,21.05
2022-11-24T10:52:40.914Z,21.13
2022-11-24T10:53:40.905Z,21.11
2022-11-24T10:54:41.529Z,21.05
2022-11-24T10:55:40.886Z,21.08
2022-11-24T10:56:40.881Z,21.08
2022-11-24T10:57:40.873Z,21.09
2022-11-24T10:58:40.958Z,21.18
2022-11-24T10:59:40.858Z,21.09
2022-11-24T11:00:40.848Z,21.06
2022-11-24T11:01:40.984Z,21.16
2022-11-24T11:02:40.859Z,21.22
2022-11-24T11:03:40.821Z,21.24
2022-11-24T11:04:40.855Z,21.22
2022-11-24T11:05:40.796Z,21.19
2022-11-24T11:06:40.800Z,21.16
2022-11-24T11:07:40.819Z,21.18
2022-11-24T11:08:40.877Z,21.26
2022-11-24T11:09:40.765Z,21.31
2022-11-24T11:10:40.766Z,21.37
2022-11-24T11:11:40.751Z,21.38
2022-11-24T11:12:44.983Z,21.33
2022-11-24T11:13:40.836Z,21.37
2022-11-24T11:14:40.722Z,21.38
2022-11-24T11:15:40.736Z,21.43
2022-11-24T11:16:40.710Z,21.46
2022-11-24T11:17:40.695Z,21.52
2022-11-24T11:18:40.688Z,21.53
2022-11-24T11:19:49.080Z,21.56
2022-11-24T11:20:40.672Z,21.63
2022-11-24T11:21:40.663Z,21.71
2022-11-24T11:22:40.656Z,21.79
2022-11-24T11:23:40.650Z,21.74
2022-11-24T11:24:40.738Z,21.81
2022-11-24T11:25:40.628Z,21.85
2022-11-24T11:26:40.630Z,21.91
2022-11-24T11:27:40.616Z,21.83
2022-11-24T11:28:40.601Z,21.90
2022-11-24T11:31:40.884Z,22.02
2022-11-24T11:34:40.758Z,22.12
2022-11-24T11:35:40.648Z,22.15
2022-11-24T11:36:40.547Z,22.12
2022-11-24T11:37:40.562Z,22.20
2022-11-24T11:38:40.658Z,22.15
2022-11-24T11:39:45.337Z,22.30
2022-11-24T11:40:40.509Z,22.30
2022-11-24T11:41:40.530Z,22.42
2022-11-24T11:43:40.484Z,22.44
2022-11-24T11:44:40.508Z,22.49
2022-11-24T11:45:40.522Z,22.42
2022-11-24T11:46:40.548Z,22.49
2022-11-24T11:47:40.454Z,22.69
2022-11-24T11:48:43.729Z,22.76
2022-11-24T11:49:40.439Z,22.97
2022-11-24T11:51:06.609Z,23.06
2022-11-24T11:51:40.476Z,23.12
2022-11-24T11:52:40.426Z,23.23
2022-11-24T11:53:40.416Z,23.37
2022-11-24T11:54:40.400Z,23.29
2022-11-24T11:55:43.985Z,23.23
2022-11-24T11:56:40.420Z,23.21
2022-11-24T11:57:40.382Z,23.29
2022-11-24T11:58:40.379Z,23.49
2022-11-24T11:59:40.365Z,23.25
2022-11-24T12:00:40.362Z,23.06
2022-11-24T12:01:40.359Z,22.86
2022-11-24T12:02:40.440Z,22.85
2022-11-24T12:03:40.539Z,22.88
2022-11-24T12:04:40.333Z,22.89
2022-11-24T12:05:40.326Z,22.97
2022-11-24T12:06:40.317Z,23.19
2022-11-24T12:07:40.353Z,23.29
2022-11-24T12:09:11.584Z,23.21
2022-11-24T12:09:40.300Z,23.19
2022-11-24T12:10:40.390Z,23.45
2022-11-24T12:11:40.289Z,23.72
2022-11-24T12:12:40.269Z,23.94
2022-11-24T12:13:40.270Z,23.99
2022-11-24T12:14:40.269Z,24.02
2022-11-24T12:15:40.351Z,24.04
2022-11-24T12:16:40.250Z,24.21
2022-11-24T12:17:40.239Z,24.27
2022-11-24T12:18:57.082Z,24.44
2022-11-24T12:19:40.238Z,24.77
2022-11-24T12:20:40.221Z,24.80
2022-11-24T12:21:40.221Z,25.01
2022-11-24T12:22:40.216Z,25.04
2022-11-24T12:23:40.212Z,25.14
2022-11-24T12:24:40.225Z,25.38
2022-11-24T12:25:40.291Z,25.44
2022-11-24T12:26:40.187Z,25.57
2022-11-24T12:27:40.189Z,25.75
2022-11-24T12:28:40.174Z,25.93
2022-11-24T12:29:40.166Z,26.03
2022-11-24T12:30:40.160Z,26.13
2022-11-24T12:31:40.175Z,26.36
2022-11-24T12:32:40.151Z,26.21
2022-11-24T12:33:40.149Z,26.53
2022-11-24T12:34:40.139Z,26.28
2022-11-24T12:35:40.130Z,26.09
2022-11-24T12:36:40.127Z,25.94
2022-11-24T12:37:40.134Z,25.83
2022-11-24T12:38:40.116Z,25.51
2022-11-24T12:39:40.116Z,25.61
2022-11-24T12:40:46.425Z,25.38
2022-11-24T12:41:42.141Z,25.29
2022-11-24T12:42:40.095Z,25.30
2022-11-24T12:43:40.093Z,25.16
2022-11-24T12:44:40.099Z,25.17
2022-11-24T12:45:40.189Z,24.98
2022-11-24T12:46:40.119Z,25.01
2022-11-24T12:47:40.065Z,24.99
2022-11-24T12:48:40.070Z,24.92
2022-11-24T12:49:40.070Z,24.64
2022-11-24T12:50:40.047Z,24.42
2022-11-24T12:51:40.049Z,24.33
2022-11-24T12:52:40.047Z,24.27
2022-11-24T12:53:40.043Z,24.27
2022-11-24T12:54:40.027Z,24.15
2022-11-24T12:55:40.029Z,24.19
2022-11-24T12:56:40.027Z,24.29
2022-11-24T12:57:40.021Z,24.31
2022-11-24T12:58:39.999Z,24.34
2022-11-24T12:59:40.015Z,24.48
2022-11-24T13:00:39.992Z,24.79
2022-11-24T13:01:40.130Z,24.92
2022-11-24T13:02:40.117Z,24.87
2022-11-24T13:03:39.983Z,25.11
2022-11-24T13:04:39.996Z,25.42
2022-11-24T13:05:39.967Z,25.60
2022-11-24T13:06:44.369Z,25.53
2022-11-24T13:07:40.006Z,25.57
2022-11-24T13:08:39.945Z,25.72
2022-11-24T13:09:39.947Z,25.74
2022-11-24T13:10:55.344Z,25.85
2022-11-24T13:11:39.932Z,25.63
2022-11-24T13:12:39.931Z,25.41
2022-11-24T13:13:39.944Z,25.30
2022-11-24T13:14:39.909Z,25.35
2022-11-24T13:15:45.983Z,25.12
2022-11-24T13:16:53.669Z,25.11
2022-11-24T13:18:02.570Z,25.34
2022-11-24T13:18:39.942Z,25.41
2022-11-24T13:19:39.896Z,25.66
2022-11-24T13:20:39.881Z,25.86
2022-11-24T13:21:39.891Z,26.09
2022-11-24T13:22:39.873Z,26.16
2022-11-24T13:23:39.869Z,26.12
2022-11-24T13:24:40.049Z,26.24
2022-11-24T13:25:40.016Z,26.16
2022-11-24T13:26:41.753Z,26.11
2022-11-24T13:27:39.852Z,25.91
2022-11-24T13:29:01.411Z,25.89
2022-11-24T13:29:39.848Z,25.93
2022-11-24T13:30:39.932Z,25.98
2022-11-24T13:31:39.891Z,26.21
2022-11-24T13:32:39.825Z,26.36
2022-11-24T13:33:39.820Z,26.24
2022-11-24T13:34:39.812Z,26.28
2022-11-24T13:35:39.811Z,26.34
2022-11-24T13:36:39.803Z,26.54
2022-11-24T13:37:39.799Z,26.68
2022-11-24T13:38:39.800Z,26.91
2022-11-24T13:39:43.655Z,26.88
2022-11-24T13:40:43.166Z,26.98
2022-11-24T13:41:39.776Z,26.97
2022-11-24T13:42:42.287Z,26.78
2022-11-24T13:43:39.765Z,26.44
2022-11-24T13:44:39.767Z,26.24
2022-11-24T13:45:40.072Z,26.13
2022-11-24T13:46:39.884Z,26.41
2022-11-24T13:47:39.754Z,26.42
2022-11-24T13:48:39.748Z,26.44
2022-11-24T13:49:39.740Z,26.87
2022-11-24T13:50:39.742Z,27.18
2022-11-24T13:51:39.729Z,27.43
2022-11-24T13:52:39.725Z,27.27
2022-11-24T13:53:39.723Z,27.21
2022-11-24T13:54:39.718Z,27.35
2022-11-24T13:55:39.714Z,27.20
2022-11-24T13:56:39.704Z,27.08
2022-11-24T13:57:39.704Z,26.93
2022-11-24T13:58:39.708Z,26.97
2022-11-24T13:59:39.698Z,26.87
2022-11-24T14:00:39.694Z,26.84
2022-11-24T14:01:39.849Z,26.83
2022-11-24T14:02:39.737Z,26.65
2022-11-24T14:03:39.694Z,26.35
2022-11-24T14:04:39.672Z,26.19
2022-11-24T14:05:39.671Z,26.20
2022-11-24T14:06:39.672Z,26.09
2022-11-24T14:07:39.693Z,26.12
2022-11-24T14:08:39.657Z,26.03
2022-11-24T14:09:39.648Z,26.06
2022-11-24T14:10:39.652Z,26.09
2022-11-24T14:11:39.639Z,26.08
2022-11-24T14:12:39.647Z,25.97
2022-11-24T14:13:39.630Z,25.72
2022-11-24T14:14:39.630Z,25.76
2022-11-24T14:15:39.669Z,25.83
2022-11-24T14:16:39.614Z,25.85
2022-11-24T14:17:39.611Z,25.79
2022-11-24T14:18:39.608Z,25.79
2022-11-24T14:19:39.601Z,25.81
2022-11-24T14:20:39.601Z,25.79
2022-11-24T14:21:39.597Z,25.75
2022-11-24T14:22:39.593Z,25.93
2022-11-24T14:23:39.588Z,25.97
2022-11-24T14:24:41.525Z,26.08
2022-11-24T14:25:39.573Z,26.08
2022-11-24T14:26:39.571Z,26.20
2022-11-24T14:27:39.569Z,25.90
2022-11-24T14:28:39.613Z,25.75
2022-11-24T14:29:39.557Z,25.69
2022-11-24T14:30:39.548Z,25.74
2022-11-24T14:31:39.587Z,25.89
2022-11-24T14:32:39.635Z,25.97
2022-11-24T14:33:39.542Z,26.16
2022-11-24T14:34:39.731Z,26.11
2022-11-24T14:35:39.568Z,26.20
2022-11-24T14:36:39.512Z,26.29
2022-11-24T14:37:39.512Z,26.31
2022-11-24T14:38:39.506Z,26.39
2022-11-24T14:39:39.504Z,26.28
2022-11-24T14:40:39.499Z,26.23
2022-11-24T14:41:39.509Z,26.28
2022-11-24T14:42:39.483Z,26.11
2022-11-24T14:43:39.486Z,26.20
2022-11-24T14:44:39.489Z,26.13
2022-11-24T14:45:39.479Z,26.19
2022-11-24T14:46:39.499Z,26.24
2022-11-24T14:47:39.461Z,26.38
2022-11-24T14:48:39.457Z,26.28
2022-11-24T14:49:39.453Z,26.29
2022-11-24T14:50:39.725Z,26.34
2022-11-24T14:51:39.444Z,26.36
2022-11-24T14:52:39.444Z,26.44
2022-11-24T14:53:39.442Z,26.61
2022-11-24T14:54:39.440Z,26.65
2022-11-24T14:55:39.428Z,26.76
2022-11-24T14:56:39.436Z,26.75
2022-11-24T14:57:39.526Z,26.76
2022-11-24T14:58:42.426Z,26.79
2022-11-24T14:59:39.408Z,26.90
2022-11-24T15:00:39.466Z,26.91
2022-11-24T15:01:39.479Z,27.01
2022-11-24T15:02:39.431Z,27.13
2022-11-24T15:03:39.390Z,27.15
2022-11-24T15:05:01.442Z,27.24
2022-11-24T15:05:39.383Z,27.12
2022-11-24T15:06:39.377Z,26.96
2022-11-24T15:07:39.473Z,26.98
2022-11-24T15:08:39.369Z,27.01
2022-11-24T15:09:39.360Z,26.94
2022-11-24T15:10:39.359Z,26.91
2022-11-24T15:11:39.356Z,27.05
2022-11-24T15:12:39.450Z,26.96
2022-11-24T15:13:39.347Z,26.79
2022-11-24T15:14:39.342Z,26.73
2022-11-24T15:15:39.336Z,26.39
2022-11-24T15:16:39.405Z,26.11
2022-11-24T15:17:39.334Z,25.98
2022-11-24T15:18:39.326Z,26.03
2022-11-24T15:19:39.319Z,25.97
2022-11-24T15:20:39.313Z,25.90
2022-11-24T15:21:39.309Z,25.91
2022-11-24T15:22:39.308Z,26.04
2022-11-24T15:23:39.302Z,26.09
2022-11-24T15:24:39.305Z,26.21
2022-11-24T15:25:39.289Z,26.23
2022-11-24T15:26:42.138Z,26.32
2022-11-24T15:27:39.286Z,26.34
2022-11-24T15:28:39.277Z,26.27
2022-11-24T15:29:39.279Z,26.21
2022-11-24T15:30:39.266Z,26.20
2022-11-24T15:31:39.383Z,26.16
2022-11-24T15:32:39.361Z,26.16
2022-11-24T15:33:39.256Z,26.13
2022-11-24T15:34:39.243Z,26.21
2022-11-24T15:35:39.244Z,26.17
2022-11-24T15:36:39.237Z,26.21
2022-11-24T15:37:39.233Z,26.20
2022-11-24T15:38:39.235Z,26.20
2022-11-24T15:39:39.226Z,26.21
2022-11-24T15:40:39.220Z,26.27
2022-11-24T15:41:39.214Z,26.41
2022-11-24T15:42:39.309Z,26.44
2022-11-24T15:43:39.203Z,26.49
2022-11-24T15:44:39.194Z,26.53
2022-11-24T15:45:39.196Z,26.51
2022-11-24T15:46:39.230Z,26.50
2022-11-24T15:47:39.186Z,26.44
2022-11-24T15:48:39.184Z,26.44
2022-11-24T15:49:39.176Z,26.34
2022-11-24T15:50:39.179Z,26.28
2022-11-24T15:51:39.167Z,26.17
2022-11-24T15:52:39.165Z,26.11
2022-11-24T15:53:39.178Z,26.13
2022-11-24T15:54:39.161Z,26.23
2022-11-24T15:55:39.158Z,26.24
2022-11-24T15:56:39.145Z,26.41
2022-11-24T15:57:39.137Z,26.54
2022-11-24T15:58:39.134Z,26.35
2022-11-24T15:59:39.139Z,26.38
2022-11-24T16:00:39.159Z,26.51
2022-11-24T16:01:39.229Z,26.50
2022-11-24T16:02:39.183Z,26.49
2022-11-24T16:03:46.888Z,26.54
2022-11-24T16:04:39.100Z,26.41
2022-11-24T16:05:39.107Z,26.23
2022-11-24T16:06:39.108Z,26.24
2022-11-24T16:07:39.177Z,26.17
2022-11-24T16:08:39.091Z,26.08
2022-11-24T16:09:39.080Z,26.11
2022-11-24T16:10:39.081Z,26.17
2022-11-24T16:11:39.067Z,26.20
2022-11-24T16:12:39.066Z,26.29
2022-11-24T16:13:39.090Z,26.36
2022-11-24T16:14:39.336Z,26.42
2022-11-24T16:15:39.049Z,26.49
2022-11-24T16:16:39.078Z,26.41
2022-11-24T16:17:39.045Z,26.64
2022-11-24T16:18:39.045Z,26.65
2022-11-24T16:19:42.037Z,26.71
2022-11-24T16:20:39.031Z,26.75
2022-11-24T16:21:39.024Z,26.72
2022-11-24T16:22:39.120Z,26.79
2022-11-24T16:23:39.026Z,26.71
2022-11-24T16:24:39.007Z,26.84
2022-11-24T16:25:39.008Z,26.94
2022-11-24T16:26:39.012Z,26.91
2022-11-24T16:27:38.995Z,26.91
2022-11-24T16:28:38.995Z,27.05
2022-11-24T16:29:38.999Z,27.06
2022-11-24T16:30:38.997Z,27.03
2022-11-24T16:31:39.019Z,26.87
2022-11-24T16:32:38.979Z,26.98
2022-11-24T16:33:38.970Z,27.01
2022-11-24T16:34:38.965Z,27.06
2022-11-24T16:35:38.965Z,27.16
2022-11-24T16:36:38.969Z,27.12
2022-11-24T16:37:38.965Z,27.21
2022-11-24T16:38:38.970Z,27.20
2022-11-24T16:39:38.958Z,27.08
2022-11-24T16:40:38.952Z,26.93
2022-11-24T16:41:38.945Z,26.87
2022-11-24T16:42:38.945Z,26.83
2022-11-24T16:43:38.935Z,26.81
2022-11-24T16:44:38.937Z,26.81
2022-11-24T16:45:45.034Z,26.73
2022-11-24T16:46:38.922Z,26.39
2022-11-24T16:47:39.019Z,26.41
2022-11-24T16:48:38.918Z,26.50
2022-11-24T16:49:38.917Z,26.51
2022-11-24T16:50:38.906Z,26.47
2022-11-24T16:51:38.898Z,26.34
2022-11-24T16:52:38.907Z,26.44
2022-11-24T16:53:38.896Z,26.42
2022-11-24T16:54:38.899Z,26.12
2022-11-24T16:55:38.885Z,26.06
2022-11-24T16:56:38.888Z,26.00
2022-11-24T16:57:38.878Z,25.90
2022-11-24T16:58:38.873Z,25.83
2022-11-24T16:59:38.864Z,25.90
2022-11-24T17:00:38.861Z,25.75
2022-11-24T17:01:38.953Z,25.83
2022-11-24T17:02:38.937Z,25.79
2022-11-24T17:03:38.849Z,25.72
2022-11-24T17:04:38.838Z,25.67
2022-11-24T17:05:38.835Z,25.79
2022-11-24T17:06:38.842Z,25.79
2022-11-24T17:07:38.880Z,25.63
2022-11-24T17:08:38.826Z,25.53
2022-11-24T17:09:40.851Z,25.39
2022-11-24T17:10:38.815Z,25.14
2022-11-24T17:11:38.809Z,25.02
2022-11-24T17:12:38.806Z,25.09
2022-11-24T17:13:38.798Z,25.04
2022-11-24T17:14:38.803Z,24.93
2022-11-24T17:15:45.291Z,24.90
2022-11-24T17:16:38.898Z,24.71
2022-11-24T17:17:55.201Z,24.61
2022-11-24T17:18:38.919Z,24.64
2022-11-24T17:19:38.758Z,24.66
2022-11-24T17:20:38.758Z,24.77
2022-11-24T17:21:38.752Z,24.55
2022-11-24T17:22:38.743Z,24.55
2022-11-24T17:23:38.740Z,24.42
2022-11-24T17:24:38.740Z,24.56
2022-11-24T17:25:38.737Z,24.51
2022-11-24T17:26:38.736Z,24.30
2022-11-24T17:27:38.712Z,24.31
2022-11-24T17:28:38.731Z,24.31
2022-11-24T17:29:38.712Z,24.37
2022-11-24T17:30:38.706Z,24.30
2022-11-24T17:31:38.723Z,24.29
2022-11-24T17:32:38.702Z,24.11
2022-11-24T17:33:38.686Z,24.18
2022-11-24T17:34:38.679Z,24.19
2022-11-24T17:35:39.025Z,24.15
2022-11-24T17:36:38.677Z,24.11
2022-11-24T17:37:38.656Z,24.11
2022-11-24T17:38:38.657Z,24.11
2022-11-24T17:39:38.642Z,23.97
2022-11-24T17:40:38.643Z,23.97
2022-11-24T17:41:38.630Z,24.00
2022-11-24T17:42:38.628Z,23.99
2022-11-24T17:43:38.617Z,23.92
2022-11-24T17:44:38.614Z,23.97
2022-11-24T17:45:38.689Z,23.90
2022-11-24T17:46:38.607Z,23.99
2022-11-24T17:47:38.593Z,23.93
2022-11-24T17:48:38.590Z,23.87
2022-11-24T17:49:38.688Z,23.89
2022-11-24T17:50:38.574Z,23.71
2022-11-24T17:51:38.568Z,23.72
2022-11-24T17:52:38.567Z,23.77
2022-11-24T17:53:38.558Z,23.74
2022-11-24T17:54:46.320Z,23.78
2022-11-24T17:55:38.548Z,23.79
2022-11-24T17:56:38.534Z,23.79
2022-11-24T17:57:38.529Z,23.86
2022-11-24T17:58:42.690Z,23.77
2022-11-24T17:59:38.616Z,23.75
2022-11-24T18:00:38.572Z,23.89
2022-11-24T18:01:38.604Z,23.81
2022-11-24T18:02:38.548Z,23.77
2022-11-24T18:03:38.497Z,23.77
2022-11-24T18:04:38.481Z,23.82
2022-11-24T18:05:38.475Z,23.93
2022-11-24T18:06:38.479Z,23.87
2022-11-24T18:07:38.504Z,23.68
2022-11-24T18:08:38.458Z,23.79
2022-11-24T18:09:38.545Z,23.71
2022-11-24T18:10:38.446Z,23.86
2022-11-24T18:11:38.439Z,24.02
2022-11-24T18:12:38.433Z,24.12
2022-11-24T18:13:56.637Z,24.18
2022-11-24T18:14:38.421Z,24.18
2022-11-24T18:15:38.415Z,24.18
2022-11-24T18:16:38.441Z,24.09
2022-11-24T18:17:38.402Z,24.11
2022-11-24T18:18:40.347Z,24.14
2022-11-24T18:19:38.389Z,24.12
2022-11-24T18:20:38.382Z,23.99
2022-11-24T18:21:38.369Z,24.05
2022-11-24T18:23:06.375Z,23.96
2022-11-24T18:23:38.360Z,23.89
2022-11-24T18:24:38.585Z,23.97
2022-11-24T18:25:38.346Z,24.15
2022-11-24T18:26:38.347Z,24.11
2022-11-24T18:27:38.345Z,23.96
2022-11-24T18:28:38.333Z,23.94
2022-11-24T18:29:38.317Z,23.92
2022-11-24T18:30:38.317Z,23.90
2022-11-24T18:31:38.392Z,23.75
2022-11-24T18:32:38.302Z,23.74
2022-11-24T18:33:38.295Z,23.71
2022-11-24T18:34:38.395Z,23.54
2022-11-24T18:35:38.286Z,23.49
2022-11-24T18:36:38.281Z,23.44
2022-11-24T18:37:38.273Z,23.26
2022-11-24T18:38:38.272Z,23.35
2022-11-24T18:39:38.261Z,23.19
2022-11-24T18:40:38.247Z,23.18
2022-11-24T18:41:38.259Z,23.06
2022-11-24T18:42:38.238Z,23.07
2022-11-24T18:43:38.239Z,22.86
2022-11-24T18:44:38.327Z,22.91
2022-11-24T18:45:38.235Z,22.94
2022-11-24T18:46:38.214Z,22.91
2022-11-24T18:47:38.205Z,22.93
2022-11-24T18:48:38.197Z,22.93
2022-11-24T18:49:38.186Z,22.85
2022-11-24T18:50:38.185Z,22.84
2022-11-24T18:51:38.176Z,22.81
2022-11-24T18:52:38.169Z,22.66
2022-11-24T18:53:38.156Z,22.69
2022-11-24T18:54:38.252Z,22.72
2022-11-24T18:55:38.152Z,22.76
2022-11-24T18:56:38.136Z,22.84
2022-11-24T18:57:38.142Z,22.86
2022-11-24T18:58:38.126Z,22.75
2022-11-24T18:59:38.111Z,22.75
2022-11-24T19:00:38.115Z,22.84
2022-11-24T19:01:38.156Z,22.89
2022-11-24T19:02:38.177Z,22.88
2022-11-24T19:03:38.084Z,22.86
2022-11-24T19:04:38.163Z,22.97
2022-11-24T19:05:38.079Z,22.97
2022-11-24T19:06:38.064Z,22.85
2022-11-24T19:07:38.088Z,22.70
2022-11-24T19:08:38.046Z,22.72
2022-11-24T19:09:38.037Z,22.72
2022-11-24T19:10:38.040Z,22.69
2022-11-24T19:11:38.030Z,22.46
2022-11-24T19:12:38.024Z,22.49
2022-11-24T19:13:38.017Z,22.44
2022-11-24T19:14:38.106Z,22.49
2022-11-24T19:15:38.002Z,22.52
2022-11-24T19:16:38.064Z,22.59
2022-11-24T19:17:37.984Z,22.61
2022-11-24T19:18:37.977Z,22.57
2022-11-24T19:19:37.969Z,22.51
2022-11-24T19:20:37.970Z,22.44
2022-11-24T19:21:37.959Z,22.59
2022-11-24T19:22:37.947Z,22.54
2022-11-24T19:23:37.941Z,22.54
2022-11-24T19:24:37.930Z,22.60
2022-11-24T19:25:37.927Z,22.59
2022-11-24T19:26:37.928Z,22.48
2022-11-24T19:27:37.913Z,22.48
2022-11-24T19:28:37.909Z,22.11
2022-11-24T19:29:42.826Z,22.21
2022-11-24T19:30:37.887Z,22.05
2022-11-24T19:31:37.936Z,22.12
2022-11-24T19:32:37.876Z,22.02
2022-11-24T19:33:37.865Z,21.90
2022-11-24T19:34:38.019Z,21.94
2022-11-24T19:35:37.853Z,21.89
2022-11-24T19:36:37.859Z,21.86
2022-11-24T19:37:37.834Z,21.83
2022-11-24T19:38:37.833Z,21.96
2022-11-24T19:39:37.818Z,21.94
2022-11-24T19:40:37.819Z,22.02
2022-11-24T19:41:37.806Z,22.04
2022-11-24T19:42:37.794Z,21.98
2022-11-24T19:43:37.792Z,21.96
2022-11-24T19:44:37.783Z,21.94
2022-11-24T19:45:37.901Z,21.89
2022-11-24T19:46:37.767Z,21.96
2022-11-24T19:47:37.758Z,21.90
2022-11-24T19:48:37.755Z,21.91
2022-11-24T19:49:37.740Z,21.93
2022-11-24T19:50:37.733Z,21.91
2022-11-24T19:51:37.732Z,21.94
2022-11-24T19:52:37.715Z,22.05
2022-11-24T19:53:37.714Z,22.02
2022-11-24T19:54:37.818Z,22.02
2022-11-24T19:55:37.697Z,21.89
2022-11-24T19:56:37.692Z,21.91
2022-11-24T19:57:37.681Z,21.91
2022-11-24T19:58:37.666Z,21.96
2022-11-24T19:59:37.659Z,21.85
2022-11-24T20:00:37.658Z,21.85
2022-11-24T20:01:37.722Z,21.79
2022-11-24T20:02:37.691Z,21.83
2022-11-24T20:03:37.640Z,21.89
2022-11-24T20:04:37.812Z,21.70
2022-11-24T20:05:37.612Z,21.71
2022-11-24T20:06:37.609Z,21.67
2022-11-24T20:07:37.631Z,21.68
2022-11-24T20:08:37.590Z,21.63
2022-11-24T20:09:37.578Z,21.71
2022-11-24T20:10:37.573Z,21.63
2022-11-24T20:11:37.667Z,21.56
2022-11-24T20:12:37.565Z,21.55
2022-11-24T20:13:37.548Z,21.58
2022-11-24T20:14:37.615Z,21.66
2022-11-24T20:15:37.528Z,21.67
2022-11-24T20:16:37.620Z,21.63
2022-11-24T20:17:37.516Z,21.56
2022-11-24T20:18:41.721Z,21.49
2022-11-24T20:19:37.496Z,21.58
2022-11-24T20:20:37.488Z,21.61
2022-11-24T20:21:37.586Z,21.51
2022-11-24T20:22:37.470Z,21.55
2022-11-24T20:23:37.467Z,21.53
2022-11-24T20:24:37.709Z,21.58
2022-11-24T20:25:37.451Z,21.59
2022-11-24T20:26:37.445Z,21.45
2022-11-24T20:27:37.427Z,21.51
2022-11-24T20:28:37.424Z,21.40
2022-11-24T20:29:39.438Z,21.42
2022-11-24T20:30:37.411Z,21.45
2022-11-24T20:31:37.455Z,21.49
2022-11-24T20:32:37.395Z,21.53
2022-11-24T20:33:37.389Z,21.53
2022-11-24T20:34:37.570Z,21.59
2022-11-24T20:35:37.362Z,21.67
2022-11-24T20:36:37.356Z,21.61
2022-11-24T20:37:37.350Z,21.63
2022-11-24T20:38:37.353Z,21.49
2022-11-24T20:39:37.336Z,21.46
2022-11-24T20:40:37.325Z,21.51
2022-11-24T20:41:37.320Z,21.53
2022-11-24T20:42:37.305Z,21.53
2022-11-24T20:43:37.298Z,21.58